createdAt,value
2016-08-09T00:00:44.709Z,53.58
2016-08-09T00:01:44.693Z,53.96
2016-08-09T00:02:45.380Z,53.87
2016-08-09T00:03:45.365Z,53.96
2016-08-09T00:04:45.360Z,53.99
2016-08-09T00:05:45.336Z,53.7
2016-08-09T00:06:45.327Z,53.61
2016-08-09T00:07:45.306Z,53.96
2016-08-09T00:08:45.286Z,53.87
2016-08-09T00:09:45.283Z,53.89
2016-08-09T00:10:45.253Z,53.87
2016-08-09T00:11:45.242Z,53.7
2016-08-09T00:12:45.217Z,54.18
2016-08-09T00:13:45.204Z,53.89
2016-08-09T00:14:45.193Z,54.18
2016-08-09T00:15:45.172Z,54.18
2016-08-09T00:16:45.156Z,54.66
2016-08-09T00:17:45.140Z,54.18
2016-08-09T00:18:45.130Z,54.09
2016-08-09T00:20:45.099Z,54.47
2016-08-09T00:21:45.074Z,54.47
2016-08-09T00:22:45.063Z,53.61
2016-08-09T00:23:44.331Z,54.38
2016-08-09T00:24:44.315Z,54.38
2016-08-09T00:25:44.305Z,54.57
2016-08-09T00:26:44.988Z,54.57
2016-08-09T00:27:44.979Z,54.38
2016-08-09T00:28:44.971Z,54.47
2016-08-09T00:29:44.951Z,54.44
2016-08-09T00:30:44.927Z,54.57
2016-08-09T00:31:44.915Z,54.47
2016-08-09T00:32:44.894Z,54.57
2016-08-09T00:33:44.876Z,54.57
2016-08-09T00:34:44.866Z,54.47
2016-08-09T00:35:44.843Z,54.47
2016-08-09T00:36:44.830Z,54.18
2016-08-09T00:37:44.814Z,54.18
2016-08-09T00:38:44.804Z,54.18
2016-08-09T00:39:44.783Z,54.47
2016-08-09T00:40:44.777Z,54.09
2016-08-09T00:41:44.750Z,54.57
2016-08-09T00:42:44.735Z,54.28
2016-08-09T00:43:44.717Z,54.38
2016-08-09T00:44:44.701Z,54.47
2016-08-09T00:45:43.987Z,54.28
2016-08-09T00:46:44.672Z,54.57
2016-08-09T00:47:44.648Z,54.38
2016-08-09T00:48:43.936Z,54.66
2016-08-09T00:49:44.623Z,54.57
2016-08-09T00:50:44.606Z,54.57
2016-08-09T00:51:44.594Z,54.66
2016-08-09T00:52:44.572Z,54.66
2016-08-09T00:53:43.845Z,54.76
2016-08-09T00:54:44.539Z,54.86
2016-08-09T00:55:44.523Z,54.86
2016-08-09T00:56:44.528Z,54.66
2016-08-09T00:57:44.491Z,54.76
2016-08-09T00:58:44.474Z,54.76
2016-08-09T00:59:44.462Z,54.76
2016-08-09T01:00:44.440Z,54.86
2016-08-09T01:01:44.424Z,54.76
2016-08-09T01:02:44.411Z,54.57
2016-08-09T01:03:44.394Z,54.47
2016-08-09T01:04:44.383Z,54.66
2016-08-09T01:05:44.359Z,54.96
2016-08-09T01:06:44.347Z,55.05
2016-08-09T01:07:44.328Z,55.05
2016-08-09T01:08:44.317Z,55.15
2016-08-09T01:09:44.293Z,54.96
2016-08-09T01:10:44.280Z,55.15
2016-08-09T01:11:44.273Z,54.96
2016-08-09T01:12:44.253Z,55.15
2016-08-09T01:13:44.234Z,55.05
2016-08-09T01:14:44.218Z,55.54
2016-08-09T01:15:44.200Z,55.44
2016-08-09T01:16:44.181Z,55.44
2016-08-09T01:17:44.167Z,55.44
2016-08-09T01:18:44.150Z,55.44
2016-08-09T01:19:43.429Z,55.73
2016-08-09T01:20:43.408Z,55.73
2016-08-09T01:21:44.108Z,55.24
2016-08-09T01:22:44.092Z,55.82
2016-08-09T01:23:44.069Z,55.24
2016-08-09T01:24:44.058Z,55.54
2016-08-09T01:25:44.038Z,55.24
2016-08-09T01:26:44.020Z,55.73
2016-08-09T01:27:44.004Z,56.01
2016-08-09T01:28:43.994Z,56.01
2016-08-09T01:29:43.975Z,56.01
2016-08-09T01:30:43.961Z,56.01
2016-08-09T01:31:43.232Z,55.82
2016-08-09T01:32:43.925Z,55.82
2016-08-09T01:33:43.911Z,55.63
2016-08-09T01:34:43.893Z,56.21
2016-08-09T01:35:43.876Z,55.54
2016-08-09T01:36:43.153Z,55.92
2016-08-09T01:37:43.842Z,56.3
2016-08-09T01:38:43.835Z,56.4
2016-08-09T01:39:43.815Z,55.92
2016-08-09T01:40:43.804Z,56.11
2016-08-09T01:41:43.783Z,55.82
2016-08-09T01:42:43.765Z,55.54
2016-08-09T01:43:43.750Z,55.82
2016-08-09T01:44:43.732Z,56.01
2016-08-09T01:45:43.721Z,55.73
2016-08-09T01:46:43.702Z,55.44
2016-08-09T01:47:43.691Z,56.21
2016-08-09T01:48:43.672Z,56.11
2016-08-09T01:49:43.655Z,56.3
2016-08-09T01:50:43.630Z,56.11
2016-08-09T01:51:43.633Z,56.01
2016-08-09T01:52:43.607Z,55.63
2016-08-09T01:53:43.589Z,55.82
2016-08-09T01:54:43.576Z,55.82
2016-08-09T01:55:43.560Z,56.01
2016-08-09T01:56:43.539Z,56.4
2016-08-09T01:57:43.524Z,56.21
2016-08-09T01:58:42.799Z,56.59
2016-08-09T01:59:42.795Z,56.49
2016-08-09T02:00:43.476Z,56.59
2016-08-09T02:01:43.459Z,56.24
2016-08-09T02:02:42.745Z,55.92
2016-08-09T02:03:43.434Z,56.01
2016-08-09T02:04:43.416Z,56.01
2016-08-09T02:05:43.398Z,56.49
2016-08-09T02:06:43.376Z,56.01
2016-08-09T02:07:43.363Z,56.33
2016-08-09T02:08:42.640Z,56.4
2016-08-09T02:09:43.328Z,56.59
2016-08-09T02:10:43.314Z,56.21
2016-08-09T02:11:42.595Z,56.4
2016-08-09T02:12:43.282Z,56.4
2016-08-09T02:13:43.270Z,56.49
2016-08-09T02:14:43.247Z,56.4
2016-08-09T02:15:43.228Z,56.33
2016-08-09T02:16:43.221Z,56.62
2016-08-09T02:17:43.199Z,56.21
2016-08-09T02:18:43.183Z,56.52
2016-08-09T02:19:43.177Z,56.4
2016-08-09T02:20:43.158Z,56.69
2016-08-09T02:21:43.139Z,56.43
2016-08-09T02:22:43.122Z,56.3
2016-08-09T02:23:43.101Z,56.43
2016-08-09T02:24:43.095Z,56.3
2016-08-09T02:25:42.367Z,56.11
2016-08-09T02:26:43.059Z,56.4
2016-08-09T02:27:43.046Z,56.52
2016-08-09T02:28:43.022Z,56.3
2016-08-09T02:29:43.009Z,56.43
2016-08-09T02:30:42.989Z,56.91
2016-08-09T02:31:42.271Z,56.52
2016-08-09T02:32:42.957Z,57.01
2016-08-09T02:33:42.952Z,56.72
2016-08-09T02:34:42.929Z,56.43
2016-08-09T02:35:42.919Z,56.62
2016-08-09T02:36:42.901Z,56.4
2016-08-09T02:37:42.881Z,56.49
2016-08-09T02:38:42.865Z,56.4
2016-08-09T02:39:42.852Z,56.4
2016-08-09T02:40:42.839Z,56.4
2016-08-09T02:41:42.825Z,56.49
2016-08-09T02:42:42.814Z,56.69
2016-08-09T02:43:42.782Z,56.49
2016-08-09T02:44:42.769Z,56.88
2016-08-09T02:45:42.764Z,56.98
2016-08-09T02:46:42.738Z,57.07
2016-08-09T02:47:42.726Z,56.88
2016-08-09T02:48:42.701Z,56.69
2016-08-09T02:49:42.686Z,56.69
2016-08-09T02:50:42.669Z,56.49
2016-08-09T02:51:42.659Z,56.4
2016-08-09T02:52:42.641Z,56.3
2016-08-09T02:53:42.619Z,56.49
2016-08-09T02:54:42.614Z,56.4
2016-08-09T02:55:42.591Z,56.4
2016-08-09T02:56:42.579Z,56.49
2016-08-09T02:57:42.560Z,56.88
2016-08-09T02:58:42.539Z,56.98
2016-08-09T02:59:42.530Z,56.69
2016-08-09T03:00:42.513Z,56.59
2016-08-09T03:01:41.784Z,56.49
2016-08-09T03:02:42.479Z,56.59
2016-08-09T03:03:42.463Z,56.4
2016-08-09T03:04:42.444Z,56.88
2016-08-09T03:05:42.435Z,56.88
2016-08-09T03:06:42.409Z,56.69
2016-08-09T03:07:42.398Z,56.49
2016-08-09T03:08:42.377Z,56.88
2016-08-09T03:09:42.374Z,56.4
2016-08-09T03:10:42.355Z,56.59
2016-08-09T03:11:42.338Z,56.69
2016-08-09T03:12:42.319Z,56.79
2016-08-09T03:13:42.309Z,56.52
2016-08-09T03:14:42.292Z,57.07
2016-08-09T03:15:42.279Z,56.49
2016-08-09T03:16:42.254Z,56.59
2016-08-09T03:17:42.238Z,56.49
2016-08-09T03:18:42.224Z,56.33
2016-08-09T03:19:42.204Z,56.52
2016-08-09T03:20:42.196Z,56.62
2016-08-09T03:21:42.181Z,56.4
2016-08-09T03:22:42.157Z,56.62
2016-08-09T03:23:42.139Z,56.62
2016-08-09T03:24:42.130Z,56.52
2016-08-09T03:25:42.115Z,56.81
2016-08-09T03:26:42.105Z,56.72
2016-08-09T03:27:42.077Z,56.91
2016-08-09T03:28:41.357Z,57.01
2016-08-09T03:29:42.043Z,56.81
2016-08-09T03:30:42.031Z,56.72
2016-08-09T03:31:42.014Z,56.91
2016-08-09T03:32:42.000Z,57.01
2016-08-09T03:33:41.994Z,56.81
2016-08-09T03:34:41.964Z,56.43
2016-08-09T03:35:41.955Z,56.91
2016-08-09T03:36:41.933Z,56.81
2016-08-09T03:37:41.927Z,56.81
2016-08-09T03:38:41.905Z,56.52
2016-08-09T03:39:41.883Z,57.01
2016-08-09T03:40:41.162Z,57.29
2016-08-09T03:41:41.851Z,57.29
2016-08-09T03:42:41.843Z,56.91
2016-08-09T03:43:41.820Z,56.91
2016-08-09T03:44:41.812Z,56.91
2016-08-09T03:45:41.788Z,56.81
2016-08-09T03:46:41.783Z,56.81
2016-08-09T03:48:41.031Z,57.01
2016-08-09T03:49:41.723Z,57.2
2016-08-09T03:50:41.704Z,56.81
2016-08-09T03:51:41.693Z,57.01
2016-08-09T03:52:41.671Z,57.2
2016-08-09T03:53:41.664Z,56.81
2016-08-09T03:54:41.642Z,57.01
2016-08-09T03:55:41.636Z,57.01
2016-08-09T03:56:41.610Z,56.72
2016-08-09T03:57:41.610Z,57.39
2016-08-09T03:58:40.878Z,57.2
2016-08-09T03:59:41.572Z,57.39
2016-08-09T04:00:41.548Z,57.29
2016-08-09T04:01:41.536Z,57.1
2016-08-09T04:02:41.060Z,57.1
2016-08-09T04:03:41.499Z,56.81
2016-08-09T04:04:41.486Z,57.29
2016-08-09T04:05:41.472Z,57.39
2016-08-09T04:06:41.453Z,57.68
2016-08-09T04:07:41.434Z,57.59
2016-08-09T04:08:41.421Z,57.2
2016-08-09T04:09:41.403Z,57.01
2016-08-09T04:10:41.389Z,57.49
2016-08-09T04:11:41.370Z,57.49
2016-08-09T04:12:41.366Z,57.59
2016-08-09T04:13:41.339Z,57.49
2016-08-09T04:14:41.328Z,57.29
2016-08-09T04:15:41.310Z,57.49
2016-08-09T04:16:41.293Z,57.68
2016-08-09T04:18:41.273Z,57.59
2016-08-09T04:19:41.241Z,57.49
2016-08-09T04:20:41.223Z,57.59
2016-08-09T04:21:41.214Z,57.78
2016-08-09T04:22:41.195Z,57.68
2016-08-09T04:23:41.183Z,57.59
2016-08-09T04:24:41.164Z,57.68
2016-08-09T04:25:41.149Z,57.68
2016-08-09T04:26:41.137Z,57.68
2016-08-09T04:27:41.119Z,57.68
2016-08-09T04:28:41.104Z,57.1
2016-08-09T04:29:41.087Z,57.78
2016-08-09T04:30:41.076Z,57.39
2016-08-09T04:31:41.057Z,57.78
2016-08-09T04:33:41.025Z,57.78
2016-08-09T04:34:41.003Z,57.68
2016-08-09T04:35:40.994Z,57.78
2016-08-09T04:36:40.265Z,57.59
2016-08-09T04:37:40.957Z,57.01
2016-08-09T04:38:40.940Z,56.91
2016-08-09T04:39:40.927Z,57.78
2016-08-09T04:40:40.909Z,57.49
2016-08-09T04:41:40.893Z,57.68
2016-08-09T04:42:40.880Z,57.49
2016-08-09T04:43:40.863Z,57.78
2016-08-09T04:44:40.855Z,57.59
2016-08-09T04:45:40.830Z,57.78
2016-08-09T04:46:40.820Z,57.1
2016-08-09T04:48:40.781Z,57.39
2016-08-09T04:49:40.765Z,56.91
2016-08-09T04:50:40.752Z,57.07
2016-08-09T04:51:40.737Z,57.2
2016-08-09T04:52:40.727Z,56.98
2016-08-09T04:53:40.715Z,57.78
2016-08-09T04:54:40.688Z,57.2
2016-08-09T04:55:40.679Z,57.59
2016-08-09T04:56:40.658Z,57.01
2016-08-09T04:57:40.645Z,57.49
2016-08-09T04:58:40.622Z,57.59
2016-08-09T04:59:40.605Z,57.97
2016-08-09T05:00:40.591Z,57.49
2016-08-09T05:01:40.576Z,57.49
2016-08-09T05:02:40.560Z,57.59
2016-08-09T05:03:40.555Z,57.59
2016-08-09T05:04:40.531Z,57.49
2016-08-09T05:05:40.511Z,57.59
2016-08-09T05:06:40.499Z,57.01
2016-08-09T05:07:40.474Z,57.01
2016-08-09T05:08:40.476Z,57.39
2016-08-09T05:09:40.443Z,57.59
2016-08-09T05:10:40.435Z,57.39
2016-08-09T05:11:40.415Z,57.78
2016-08-09T05:12:40.403Z,57.59
2016-08-09T05:13:40.380Z,57.59
2016-08-09T05:14:40.376Z,57.59
2016-08-09T05:15:39.649Z,57.59
2016-08-09T05:16:40.343Z,58.26
2016-08-09T05:17:40.316Z,58.17
2016-08-09T05:18:40.298Z,57.68
2016-08-09T05:19:40.284Z,57.49
2016-08-09T05:20:40.271Z,57.78
2016-08-09T05:21:40.260Z,57.59
2016-08-09T05:22:40.236Z,57.59
2016-08-09T05:23:40.235Z,57.78
2016-08-09T05:24:40.208Z,57.97
2016-08-09T05:25:40.191Z,58.17
2016-08-09T05:26:40.180Z,57.68
2016-08-09T05:27:40.155Z,57.68
2016-08-09T05:28:40.139Z,58.07
2016-08-09T05:29:40.131Z,57.75
2016-08-09T05:30:40.117Z,58.17
2016-08-09T05:31:39.382Z,57.75
2016-08-09T05:32:40.072Z,57.97
2016-08-09T05:33:40.060Z,57.97
2016-08-09T05:34:40.048Z,58.26
2016-08-09T05:35:40.029Z,57.59
2016-08-09T05:36:40.022Z,57.87
2016-08-09T05:37:40.012Z,57.75
2016-08-09T05:38:39.983Z,57.87
2016-08-09T05:39:39.966Z,57.56
2016-08-09T05:40:39.952Z,57.65
2016-08-09T05:41:39.933Z,58.07
2016-08-09T05:42:39.923Z,57.97
2016-08-09T05:43:39.899Z,57.65
2016-08-09T05:44:39.886Z,58.14
2016-08-09T05:45:39.873Z,57.46
2016-08-09T05:46:39.855Z,58.33
2016-08-09T05:47:39.834Z,57.94
2016-08-09T05:48:39.821Z,57.94
2016-08-09T05:49:39.806Z,57.94
2016-08-09T05:50:39.074Z,57.56
2016-08-09T05:51:39.774Z,58.17
2016-08-09T05:52:39.768Z,58.14
2016-08-09T05:53:39.739Z,57.94
2016-08-09T05:54:39.728Z,58.04
2016-08-09T05:55:39.714Z,58.04
2016-08-09T05:56:39.692Z,57.59
2016-08-09T05:57:38.969Z,57.56
2016-08-09T05:58:39.663Z,58.11
2016-08-09T05:59:39.642Z,58.2
2016-08-09T06:00:39.635Z,58.69
2016-08-09T06:01:39.612Z,58.49
2016-08-09T06:02:38.889Z,58.97
2016-08-09T06:03:39.589Z,58.27
2016-08-09T06:04:39.572Z,58.85
2016-08-09T06:05:39.551Z,59.04
2016-08-09T06:06:39.534Z,59.14
2016-08-09T06:07:39.514Z,59.23
2016-08-09T06:08:39.505Z,59.81
2016-08-09T06:09:39.480Z,59.23
2016-08-09T06:10:39.468Z,59.62
2016-08-09T06:11:39.452Z,58.85
2016-08-09T06:12:39.440Z,58.85
2016-08-09T06:13:39.417Z,58.85
2016-08-09T06:14:39.408Z,59.33
2016-08-09T06:15:39.387Z,59.33
2016-08-09T06:16:39.373Z,59.3
2016-08-09T06:17:39.354Z,58.85
2016-08-09T06:18:39.335Z,58.75
2016-08-09T06:19:38.613Z,58.75
2016-08-09T06:20:39.306Z,58.65
2016-08-09T06:21:39.297Z,58.92
2016-08-09T06:22:39.274Z,58.82
2016-08-09T06:23:39.256Z,58.72
2016-08-09T06:24:39.238Z,58.82
2016-08-09T06:25:39.222Z,59.01
2016-08-09T06:26:39.215Z,59.01
2016-08-09T06:27:39.192Z,59.11
2016-08-09T06:28:39.176Z,59.01
2016-08-09T06:29:39.167Z,59.2
2016-08-09T06:30:39.142Z,59.3
2016-08-09T06:31:39.124Z,59.11
2016-08-09T06:32:39.112Z,59.11
2016-08-09T06:33:39.093Z,58.92
2016-08-09T06:34:39.085Z,59.2
2016-08-09T06:35:39.060Z,59.88
2016-08-09T06:36:39.056Z,59.3
2016-08-09T06:37:39.028Z,59.69
2016-08-09T06:38:39.007Z,58.92
2016-08-09T06:39:38.997Z,58.82
2016-08-09T06:40:38.978Z,59.3
2016-08-09T06:41:38.962Z,58.92
2016-08-09T06:42:38.953Z,58.92
2016-08-09T06:43:38.927Z,59.2
2016-08-09T06:44:38.913Z,59.49
2016-08-09T06:45:38.894Z,59.59
2016-08-09T06:46:38.876Z,58.92
2016-08-09T06:47:38.867Z,59.49
2016-08-09T06:48:38.848Z,59.4
2016-08-09T06:52:38.848Z,59.49
2016-08-09T06:53:38.760Z,59.11
2016-08-09T06:54:38.748Z,59.49
2016-08-09T06:55:38.733Z,59.49
2016-08-09T06:56:38.716Z,59.3
2016-08-09T06:57:38.694Z,59.78
2016-08-09T06:58:38.681Z,59.3
2016-08-09T06:59:38.666Z,59.2
2016-08-09T07:00:38.650Z,59.2
2016-08-09T07:01:38.626Z,59.49
2016-08-09T07:02:38.609Z,59.4
2016-08-09T07:03:38.596Z,59.59
2016-08-09T07:04:38.578Z,59.78
2016-08-09T07:05:38.567Z,59.3
2016-08-09T07:06:38.547Z,59.3
2016-08-09T07:07:38.529Z,59.3
2016-08-09T07:08:37.803Z,59.2
2016-08-09T07:09:38.497Z,58.89
2016-08-09T07:10:38.479Z,58.82
2016-08-09T07:11:37.756Z,58.82
2016-08-09T07:12:38.453Z,58.63
2016-08-09T07:13:38.429Z,58.92
2016-08-09T07:14:38.405Z,58.53
2016-08-09T07:15:38.397Z,58.82
2016-08-09T07:16:38.374Z,58.53
2016-08-09T07:17:38.363Z,59.2
2016-08-09T07:18:38.347Z,58.34
2016-08-09T07:19:38.329Z,58.24
2016-08-09T07:20:38.312Z,58.5
2016-08-09T07:21:38.291Z,58.5
2016-08-09T07:22:38.299Z,58.4
2016-08-09T07:23:38.258Z,58.6
2016-08-09T07:24:38.245Z,58.4
2016-08-09T07:25:38.232Z,58.79
2016-08-09T07:26:38.214Z,58.89
2016-08-09T07:27:38.190Z,58.79
2016-08-09T07:28:38.177Z,58.79
2016-08-09T07:29:38.164Z,58.34
2016-08-09T07:30:37.436Z,58.63
2016-08-09T07:31:38.132Z,58.53
2016-08-09T07:32:38.123Z,58.47
2016-08-09T07:33:38.094Z,58.44
2016-08-09T07:34:38.077Z,58.82
2016-08-09T07:35:38.066Z,59.27
2016-08-09T07:36:38.044Z,58.98
2016-08-09T07:37:38.030Z,59.3
2016-08-09T07:38:38.011Z,59.17
2016-08-09T07:39:37.998Z,59.27
2016-08-09T07:40:37.980Z,59.66
2016-08-09T07:41:37.957Z,59.27
2016-08-09T07:42:37.943Z,59.47
2016-08-09T07:43:37.940Z,59.37
2016-08-09T07:44:37.907Z,59.27
2016-08-09T07:45:37.895Z,59.08
2016-08-09T07:46:37.877Z,59.27
2016-08-09T07:47:37.858Z,59.05
2016-08-09T07:48:37.840Z,59.34
2016-08-09T07:49:37.824Z,59.15
2016-08-09T07:50:37.810Z,59.53
2016-08-09T07:51:37.794Z,59.05
2016-08-09T07:52:37.778Z,59.15
2016-08-09T07:53:37.760Z,59.72
2016-08-09T07:54:37.031Z,59.05
2016-08-09T07:55:37.722Z,58.98
2016-08-09T07:56:37.715Z,58.79
2016-08-09T07:57:37.692Z,58.6
2016-08-09T07:58:37.679Z,58.24
2016-08-09T07:59:37.655Z,57.47
2016-08-09T08:00:37.642Z,57.69
2016-08-09T08:01:36.936Z,57.5
2016-08-09T08:02:37.603Z,57.6
2016-08-09T08:03:37.594Z,57.21
2016-08-09T08:04:37.578Z,57.21
2016-08-09T08:05:37.567Z,57.24
2016-08-09T08:06:37.543Z,57.31
2016-08-09T08:07:37.531Z,57.53
2016-08-09T08:08:37.509Z,56.82
2016-08-09T08:09:37.491Z,56.85
2016-08-09T08:10:37.473Z,56.76
2016-08-09T08:11:37.461Z,56.95
2016-08-09T08:12:36.731Z,56.95
2016-08-09T08:13:37.425Z,56.47
2016-08-09T08:14:37.406Z,56.76
2016-08-09T08:15:37.390Z,56.85
2016-08-09T08:16:37.386Z,56.66
2016-08-09T08:17:37.362Z,56.37
2016-08-09T08:19:37.316Z,54.06
2016-08-09T08:20:37.301Z,54.52
2016-08-09T08:21:37.292Z,54.64
2016-08-09T08:22:37.264Z,54.44
2016-08-09T08:23:37.264Z,53.55
2016-08-09T08:24:37.237Z,52.97
2016-08-09T08:25:37.221Z,53.17
2016-08-09T08:26:37.207Z,52.97
2016-08-09T08:27:37.194Z,53.65
2016-08-09T08:28:37.175Z,52.61
2016-08-09T08:29:37.153Z,52.33
2016-08-09T08:30:37.140Z,52.13
2016-08-09T08:31:37.127Z,51.82
2016-08-09T08:32:37.098Z,51.92
2016-08-09T08:34:37.068Z,51.56
2016-08-09T08:35:37.057Z,51.26
2016-08-09T08:36:37.038Z,51.43
2016-08-09T08:37:37.018Z,52.01
2016-08-09T08:38:37.005Z,52.81
2016-08-09T08:39:36.986Z,53.29
2016-08-09T08:40:36.980Z,53.09
2016-08-09T08:41:36.958Z,53.58
2016-08-09T08:42:36.944Z,53.96
2016-08-09T08:43:36.917Z,54.54
2016-08-09T08:44:36.915Z,54.44
2016-08-09T08:45:36.886Z,54.54
2016-08-09T08:46:36.870Z,54.16
2016-08-09T08:47:36.854Z,54.28
2016-08-09T08:49:36.821Z,54.57
2016-08-09T08:50:36.804Z,54.44
2016-08-09T08:51:36.787Z,54.57
2016-08-09T08:52:36.070Z,54.57
2016-08-09T08:53:36.763Z,54.76
2016-08-09T08:54:36.740Z,54.57
2016-08-09T08:55:36.721Z,54.57
2016-08-09T08:56:36.705Z,54.76
2016-08-09T08:57:36.688Z,55.05
2016-08-09T08:58:36.675Z,54.96
2016-08-09T08:59:36.660Z,54.96
2016-08-09T09:00:36.640Z,54.86
2016-08-09T09:01:36.625Z,54.66
2016-08-09T09:02:35.896Z,53.51
2016-08-09T09:03:36.587Z,52.93
2016-08-09T09:04:36.580Z,53.51
2016-08-09T09:05:36.555Z,53.48
2016-08-09T09:06:36.547Z,52.91
2016-08-09T09:07:36.518Z,53.58
2016-08-09T09:08:36.504Z,53.67
2016-08-09T09:09:36.497Z,54.54
2016-08-09T09:10:36.470Z,53.67
2016-08-09T09:11:36.454Z,54.16
2016-08-09T09:12:36.440Z,53.96
2016-08-09T09:13:36.428Z,54.64
2016-08-09T09:14:35.706Z,54.54
2016-08-09T09:15:36.400Z,54.35
2016-08-09T09:16:36.374Z,54.93
2016-08-09T09:17:36.372Z,55
2016-08-09T09:18:36.341Z,55.87
2016-08-09T09:19:36.323Z,55.57
2016-08-09T09:20:36.310Z,55.77
2016-08-09T09:21:36.292Z,55.67
2016-08-09T09:22:36.280Z,55.87
2016-08-09T09:23:36.256Z,56.41
2016-08-09T09:24:36.255Z,55.57
2016-08-09T09:25:36.224Z,55.87
2016-08-09T09:26:36.210Z,55.09
2016-08-09T09:27:36.195Z,55.41
2016-08-09T09:28:36.182Z,55.12
2016-08-09T09:29:36.168Z,54.93
2016-08-09T09:30:35.433Z,55.02
2016-08-09T09:31:36.136Z,54.93
2016-08-09T09:32:36.108Z,54.64
2016-08-09T09:33:36.102Z,54.64
2016-08-09T09:34:36.081Z,54.64
2016-08-09T09:35:36.067Z,54.54
2016-08-09T09:36:36.045Z,54.28
2016-08-09T09:37:36.039Z,54.25
2016-08-09T09:38:36.018Z,54.09
2016-08-09T09:39:35.998Z,54.18
2016-08-09T09:40:35.981Z,54.09
2016-08-09T09:41:35.974Z,54.38
2016-08-09T09:42:35.953Z,54.96
2016-08-09T09:43:35.942Z,54.47
2016-08-09T09:44:35.914Z,54.86
2016-08-09T09:45:35.897Z,54.66
2016-08-09T09:46:35.171Z,54.86
2016-08-09T09:47:35.871Z,54.96
2016-08-09T09:48:35.861Z,54.57
2016-08-09T09:49:35.832Z,55.05
2016-08-09T09:50:35.824Z,55.15
2016-08-09T09:51:35.805Z,54.76
2016-08-09T09:52:35.784Z,54.86
2016-08-09T09:53:35.767Z,54.96
2016-08-09T09:54:35.754Z,54.96
2016-08-09T09:55:35.733Z,55.15
2016-08-09T09:56:35.719Z,55.05
2016-08-09T09:57:35.702Z,54.96
2016-08-09T09:58:35.684Z,55.34
2016-08-09T09:59:35.667Z,55.44
2016-08-09T10:00:34.940Z,55.73
2016-08-09T10:01:35.634Z,55.24
2016-08-09T10:02:35.614Z,54.86
2016-08-09T10:03:35.605Z,55.73
2016-08-09T10:04:35.584Z,55.34
2016-08-09T10:05:35.570Z,55.92
2016-08-09T10:06:34.845Z,55.34
2016-08-09T10:07:35.535Z,55.24
2016-08-09T10:08:35.532Z,55.63
2016-08-09T10:09:35.509Z,55.44
2016-08-09T10:10:35.497Z,55.92
2016-08-09T10:11:35.475Z,55.54
2016-08-09T10:12:35.460Z,55.63
2016-08-09T10:13:35.447Z,55.63
2016-08-09T10:14:34.722Z,54.96
2016-08-09T10:15:34.698Z,55.92
2016-08-09T10:16:35.394Z,55.82
2016-08-09T10:17:35.385Z,55.92
2016-08-09T10:18:35.362Z,55.82
2016-08-09T10:19:35.348Z,54.96
2016-08-09T10:20:34.619Z,55.44
2016-08-09T10:21:35.307Z,55.73
2016-08-09T10:22:35.301Z,55.44
2016-08-09T10:23:35.276Z,55.73
2016-08-09T10:24:35.269Z,55.05
2016-08-09T10:25:35.249Z,54.96
2016-08-09T10:26:35.230Z,54.96
2016-08-09T10:27:35.221Z,54.96
2016-08-09T10:28:35.203Z,55.66
2016-08-09T10:29:35.187Z,55.76
2016-08-09T10:30:35.169Z,55.82
2016-08-09T10:31:35.177Z,56.11
2016-08-09T10:32:35.149Z,55.85
2016-08-09T10:33:35.116Z,55.73
2016-08-09T10:34:35.101Z,55.73
2016-08-09T10:35:35.079Z,55.82
2016-08-09T10:36:35.077Z,55.56
2016-08-09T10:37:35.066Z,55.94
2016-08-09T10:38:35.035Z,55.94
2016-08-09T10:39:35.083Z,56.14
2016-08-09T10:40:35.005Z,56.52
2016-08-09T10:41:34.994Z,57.1
2016-08-09T10:42:34.971Z,56.91
2016-08-09T10:43:34.954Z,56.62
2016-08-09T10:44:34.940Z,56.91
2016-08-09T10:45:34.925Z,56.52
2016-08-09T10:46:34.924Z,56.52
2016-08-09T10:47:34.893Z,56.33
2016-08-09T10:48:34.879Z,56.43
2016-08-09T10:49:34.873Z,56.43
2016-08-09T10:50:34.842Z,56.14
2016-08-09T10:51:34.119Z,56.04
2016-08-09T10:52:34.810Z,56.43
2016-08-09T10:53:34.794Z,56.24
2016-08-09T10:54:34.783Z,55.85
2016-08-09T10:55:34.767Z,55.76
2016-08-09T10:56:34.740Z,55.85
2016-08-09T10:57:34.731Z,55.76
2016-08-09T10:58:34.716Z,55.85
2016-08-09T10:59:34.736Z,55.94
2016-08-09T11:00:34.679Z,55.94
2016-08-09T11:01:34.666Z,55.94
2016-08-09T11:02:34.651Z,55.94
2016-08-09T11:03:34.634Z,55.94
2016-08-09T11:04:34.623Z,55.94
2016-08-09T11:05:34.600Z,56.04
2016-08-09T11:06:34.582Z,55.94
2016-08-09T11:07:34.573Z,56.04
2016-08-09T11:08:33.848Z,55.94
2016-08-09T11:09:33.827Z,55.94
2016-08-09T11:10:34.532Z,55.66
2016-08-09T11:11:34.505Z,55.66
2016-08-09T11:12:34.490Z,55.76
2016-08-09T11:13:34.473Z,55.76
2016-08-09T11:14:34.461Z,55.85
2016-08-09T11:15:34.442Z,55.76
2016-08-09T11:16:34.428Z,55.85
2016-08-09T11:17:34.448Z,55.85
2016-08-09T11:18:34.409Z,55.66
2016-08-09T11:19:34.375Z,55.76
2016-08-09T11:20:34.360Z,55.56
2016-08-09T11:21:34.350Z,55.56
2016-08-09T11:22:34.331Z,55.66
2016-08-09T11:23:34.314Z,55.76
2016-08-09T11:24:33.590Z,55.76
2016-08-09T11:25:34.280Z,55.66
2016-08-09T11:26:34.267Z,55.66
2016-08-09T11:27:34.253Z,55.76
2016-08-09T11:28:34.233Z,55.66
2016-08-09T11:29:34.213Z,55.94
2016-08-09T11:30:34.199Z,55.76
2016-08-09T11:31:34.192Z,55.76
2016-08-09T11:32:34.171Z,55.85
2016-08-09T11:33:34.157Z,55.66
2016-08-09T11:34:34.138Z,55.85
2016-08-09T11:35:34.121Z,55.85
2016-08-09T11:36:34.105Z,55.94
2016-08-09T11:37:34.081Z,55.85
2016-08-09T11:38:34.072Z,55.85
2016-08-09T11:39:34.064Z,55.76
2016-08-09T11:40:34.038Z,56.04
2016-08-09T11:41:34.026Z,55.94
2016-08-09T11:42:34.008Z,56.33
2016-08-09T11:43:33.993Z,55.76
2016-08-09T11:44:33.977Z,55.76
2016-08-09T11:45:33.250Z,55.76
2016-08-09T11:46:33.947Z,55.85
2016-08-09T11:47:33.926Z,55.85
2016-08-09T11:48:33.919Z,55.94
2016-08-09T11:49:33.892Z,56.04
2016-08-09T11:50:33.887Z,56.24
2016-08-09T11:51:33.875Z,55.76
2016-08-09T11:52:33.160Z,55.85
2016-08-09T11:53:33.830Z,56.14
2016-08-09T11:54:33.811Z,55.85
2016-08-09T11:55:33.799Z,55.76
2016-08-09T11:56:33.781Z,55.76
2016-08-09T11:57:33.766Z,55.56
2016-08-09T11:58:33.045Z,56.24
2016-08-09T11:59:33.738Z,56.14
2016-08-09T12:00:33.727Z,55.76
2016-08-09T12:01:33.704Z,55.94
2016-08-09T12:02:33.693Z,55.85
2016-08-09T12:03:33.686Z,55.85
2016-08-09T12:05:33.639Z,55.94
2016-08-09T12:06:33.620Z,56.24
2016-08-09T12:07:33.620Z,55.94
2016-08-09T12:08:33.591Z,55.76
2016-08-09T12:09:33.578Z,55.76
2016-08-09T12:10:33.556Z,55.76
2016-08-09T12:11:33.545Z,55.85
2016-08-09T12:12:33.535Z,55.66
2016-08-09T12:13:33.512Z,55.66
2016-08-09T12:14:33.502Z,54.53
2016-08-09T12:15:33.482Z,54.79
2016-08-09T12:16:33.470Z,54.79
2016-08-09T12:17:33.446Z,55.1
2016-08-09T12:18:33.429Z,54.98
2016-08-09T12:19:33.414Z,55.01
2016-08-09T12:20:33.407Z,54.82
2016-08-09T12:21:33.383Z,55.88
2016-08-09T12:22:33.374Z,55.68
2016-08-09T12:23:33.350Z,55.49
2016-08-09T12:24:33.334Z,55.01
2016-08-09T12:25:33.316Z,54.98
2016-08-09T12:26:33.302Z,54.91
2016-08-09T12:27:33.285Z,54.82
2016-08-09T12:28:33.271Z,54.72
2016-08-09T12:29:33.259Z,54.5
2016-08-09T12:30:32.537Z,55.49
2016-08-09T12:31:33.224Z,54.53
2016-08-09T12:32:33.203Z,55.2
2016-08-09T12:33:33.191Z,55.1
2016-08-09T12:34:32.713Z,55.59
2016-08-09T12:35:33.154Z,55.4
2016-08-09T12:36:33.143Z,55.78
2016-08-09T12:37:33.126Z,55.68
2016-08-09T12:38:33.113Z,55.66
2016-08-09T12:39:33.095Z,52.89
2016-08-09T12:40:33.085Z,49.96
2016-08-09T12:41:33.069Z,50.71
2016-08-09T12:42:33.051Z,49.75
2016-08-09T12:43:33.036Z,49.82
2016-08-09T12:44:33.016Z,49.53
2016-08-09T12:45:32.298Z,50.4
2016-08-09T12:46:32.987Z,49.91
2016-08-09T12:47:32.973Z,49.43
2016-08-09T12:48:32.957Z,49.34
2016-08-09T12:50:32.916Z,49.82
2016-08-09T12:51:32.913Z,49.34
2016-08-09T12:52:32.888Z,49.63
2016-08-09T12:53:32.880Z,50.11
2016-08-09T12:54:32.862Z,49.82
2016-08-09T12:55:32.835Z,50.69
2016-08-09T12:56:32.821Z,50.04
2016-08-09T12:57:32.806Z,50.52
2016-08-09T12:58:32.792Z,50.52
2016-08-09T12:59:32.783Z,50.42
2016-08-09T13:00:32.755Z,50.93
2016-08-09T13:01:32.742Z,50.45
2016-08-09T13:02:32.731Z,51.89
2016-08-09T13:03:32.709Z,51.89
2016-08-09T13:05:32.677Z,51.99
2016-08-09T13:06:32.682Z,51.89
2016-08-09T13:07:32.651Z,52.09
2016-08-09T13:08:32.622Z,51.89
2016-08-09T13:09:32.613Z,51.99